createdAt,value
2018-02-19T00:02:12.683Z,1.60
2018-02-19T00:04:41.640Z,1.60
2018-02-19T00:07:10.613Z,1.60
2018-02-19T00:09:40.002Z,1.60
2018-02-19T00:12:09.793Z,1.60
2018-02-19T00:14:38.749Z,1.50
2018-02-19T00:17:08.483Z,1.50
2018-02-19T00:19:37.447Z,1.50
2018-02-19T00:22:06.404Z,1.60
2018-02-19T00:24:35.817Z,1.50
2018-02-19T00:27:04.802Z,1.60
2018-02-19T00:29:34.160Z,1.50
2018-02-19T00:32:03.891Z,1.50
2018-02-19T00:34:33.637Z,1.60
2018-02-19T00:37:02.610Z,1.60
2018-02-19T00:39:31.602Z,1.70
2018-02-19T00:42:00.589Z,1.60
2018-02-19T00:44:30.313Z,1.50
2018-02-19T00:47:00.074Z,1.50
2018-02-19T00:49:29.425Z,1.50
2018-02-19T00:51:59.134Z,1.50
2018-02-19T00:54:28.590Z,1.50
2018-02-19T00:56:58.645Z,1.40
2018-02-19T00:59:27.981Z,1.40
2018-02-19T01:01:57.402Z,1.40
2018-02-19T01:04:26.492Z,1.40
2018-02-19T01:06:55.537Z,1.40
2018-02-19T01:09:25.252Z,1.40
2018-02-19T01:11:55.024Z,1.40
2018-02-19T01:14:25.484Z,1.50
2018-02-19T01:16:55.299Z,1.50
2018-02-19T01:19:24.314Z,1.50
2018-02-19T01:21:53.662Z,1.50
2018-02-19T01:24:22.607Z,1.60
2018-02-19T01:26:51.585Z,1.60
2018-02-19T01:29:20.921Z,1.60
2018-02-19T01:31:49.968Z,1.60
2018-02-19T01:34:19.320Z,1.70
2018-02-19T01:36:48.279Z,1.70
2018-02-19T01:39:17.765Z,1.70
2018-02-19T01:41:46.773Z,1.60
2018-02-19T01:44:15.713Z,1.70
2018-02-19T01:46:45.092Z,1.70
2018-02-19T01:49:14.143Z,1.80
2018-02-19T01:51:43.113Z,1.80
2018-02-19T01:54:13.568Z,1.90
2018-02-19T01:56:43.420Z,1.80
2018-02-19T01:59:12.370Z,1.80
2018-02-19T02:01:42.095Z,1.80
2018-02-19T02:04:11.511Z,1.80
2018-02-19T02:06:41.214Z,1.70
2018-02-19T02:09:10.226Z,1.70
2018-02-19T02:11:39.193Z,1.70
2018-02-19T02:14:08.143Z,1.80
2018-02-19T02:16:37.095Z,1.80
2018-02-19T02:19:06.119Z,1.70
2018-02-19T02:21:35.883Z,1.80
2018-02-19T02:24:05.576Z,1.70
2018-02-19T02:26:34.642Z,1.70
2018-02-19T02:29:03.609Z,1.80
2018-02-19T02:31:32.979Z,1.80
2018-02-19T02:34:02.336Z,1.80
2018-02-19T02:36:31.759Z,1.70
2018-02-19T02:39:01.569Z,1.70
2018-02-19T02:41:30.525Z,1.80
2018-02-19T02:43:59.826Z,1.80
2018-02-19T02:46:28.760Z,1.70
2018-02-19T02:48:58.521Z,1.80
2018-02-19T02:51:27.460Z,1.80
2018-02-19T02:53:57.486Z,1.80
2018-02-19T02:56:27.197Z,1.70
2018-02-19T02:58:56.582Z,1.80
2018-02-19T03:01:26.340Z,1.80
2018-02-19T03:03:56.061Z,1.80
2018-02-19T03:06:25.798Z,1.90
2018-02-19T03:08:56.276Z,1.80
2018-02-19T03:11:26.204Z,1.80
2018-02-19T03:13:55.528Z,1.80
2018-02-19T03:16:24.477Z,1.80
2018-02-19T03:18:53.446Z,1.80
2018-02-19T03:21:22.801Z,1.80
2018-02-19T03:23:51.987Z,1.80
2018-02-19T03:26:20.959Z,1.80
2018-02-19T03:28:49.918Z,1.90
2018-02-19T03:31:18.927Z,1.90
2018-02-19T03:33:48.653Z,1.90
2018-02-19T03:36:17.713Z,1.90
2018-02-19T03:38:47.417Z,1.80
2018-02-19T03:41:17.178Z,1.80
2018-02-19T03:43:46.691Z,1.90
2018-02-19T03:46:15.758Z,1.90
2018-02-19T03:48:44.975Z,1.90
2018-02-19T03:51:14.111Z,1.80
2018-02-19T03:53:43.878Z,1.90
2018-02-19T03:56:12.865Z,1.80
2018-02-19T03:58:42.636Z,1.90
2018-02-19T04:01:11.602Z,1.90
2018-02-19T04:03:40.579Z,1.80
2018-02-19T04:06:09.574Z,1.90
2018-02-19T04:08:38.517Z,1.90
2018-02-19T04:11:08.384Z,1.80
2018-02-19T04:13:37.328Z,1.80
2018-02-19T04:16:06.284Z,1.90
2018-02-19T04:18:35.249Z,1.80
2018-02-19T04:21:04.236Z,1.80
2018-02-19T04:23:33.188Z,1.90
2018-02-19T04:26:02.134Z,1.90
2018-02-19T04:28:31.137Z,1.90
2018-02-19T04:31:00.085Z,1.90
2018-02-19T04:33:29.788Z,1.80
2018-02-19T04:35:58.812Z,1.90
2018-02-19T04:38:27.770Z,1.90
2018-02-19T04:40:56.717Z,2.00
2018-02-19T04:43:25.713Z,1.90
2018-02-19T04:46:08.325Z,1.90
2018-02-19T04:48:37.755Z,1.90
2018-02-19T04:51:07.554Z,1.90
2018-02-19T04:53:37.290Z,1.90
2018-02-19T04:56:06.583Z,1.90
2018-02-19T04:58:35.534Z,1.80
2018-02-19T05:01:04.658Z,1.90
2018-02-19T05:03:33.785Z,1.90
2018-02-19T05:06:03.505Z,1.90
2018-02-19T05:08:32.470Z,1.90
2018-02-19T05:11:01.445Z,1.90
2018-02-19T05:13:31.153Z,1.90
2018-02-19T05:16:01.183Z,1.90
2018-02-19T05:18:30.129Z,1.90
2018-02-19T05:20:59.081Z,1.90
2018-02-19T05:23:28.041Z,1.90
2018-02-19T05:25:57.794Z,1.90
2018-02-19T05:28:26.745Z,1.90
2018-02-19T05:30:56.484Z,1.90
2018-02-19T05:33:25.440Z,1.80
2018-02-19T05:35:54.786Z,1.80
2018-02-19T05:38:24.506Z,1.80
2018-02-19T05:40:53.959Z,1.80
2018-02-19T05:43:22.904Z,1.60
2018-02-19T05:45:51.868Z,1.60
2018-02-19T05:48:21.652Z,1.60
2018-02-19T05:50:51.366Z,1.50
2018-02-19T05:53:21.164Z,1.50
2018-02-19T05:55:50.868Z,1.50
2018-02-19T05:58:19.912Z,1.40
2018-02-19T06:00:49.278Z,1.30
2018-02-19T06:03:18.271Z,1.30
2018-02-19T06:05:48.009Z,1.20
2018-02-19T06:08:17.735Z,1.20
2018-02-19T06:10:47.505Z,1.30
2018-02-19T06:13:17.266Z,1.20
2018-02-19T06:15:46.289Z,1.20
2018-02-19T06:18:15.233Z,1.10
2018-02-19T06:20:44.193Z,1.10
2018-02-19T06:23:14.002Z,1.20
2018-02-19T06:25:42.933Z,1.20
2018-02-19T06:28:12.691Z,1.20
2018-02-19T06:30:42.420Z,1.20
2018-02-19T06:33:11.372Z,1.10
2018-02-19T06:38:15.491Z,1.30
2018-02-19T06:40:44.867Z,1.20
2018-02-19T06:43:13.810Z,1.30
2018-02-19T06:45:43.457Z,1.30
2018-02-19T06:48:13.541Z,1.30
2018-02-19T06:50:42.925Z,1.30
2018-02-19T06:53:11.868Z,1.30
2018-02-19T06:55:40.833Z,1.30
2018-02-19T06:58:10.532Z,1.40
2018-02-19T07:00:40.277Z,1.40
2018-02-19T07:03:09.241Z,1.40
2018-02-19T07:05:38.966Z,1.40
2018-02-19T07:08:08.742Z,1.40
2018-02-19T07:10:39.230Z,1.40
2018-02-19T07:13:08.214Z,1.40
2018-02-19T07:15:38.307Z,1.30
2018-02-19T07:18:08.161Z,1.30
2018-02-19T07:20:37.900Z,1.30
2018-02-19T07:23:06.875Z,1.30
2018-02-19T07:25:35.922Z,1.30
2018-02-19T07:28:05.603Z,1.40
2018-02-19T07:30:36.241Z,1.40
2018-02-19T07:33:06.194Z,1.50
2018-02-19T07:35:41.669Z,1.50
2018-02-19T07:38:10.966Z,1.50
2018-02-19T07:40:39.957Z,1.50
2018-02-19T07:43:08.951Z,1.60
2018-02-19T07:45:38.815Z,1.60
2018-02-19T07:48:08.690Z,1.70
2018-02-19T07:50:38.793Z,1.70
2018-02-19T07:53:07.803Z,1.80
2018-02-19T07:55:37.186Z,1.90
2018-02-19T07:58:07.357Z,2.00
2018-02-19T08:00:36.363Z,2.10
2018-02-19T08:03:05.761Z,2.20
2018-02-19T08:05:35.638Z,2.30
2018-02-19T08:08:04.718Z,2.40
2018-02-19T08:10:35.261Z,2.10
2018-02-19T08:13:04.286Z,2.40
2018-02-19T08:15:34.047Z,2.30
2018-02-19T08:18:03.069Z,2.50
2018-02-19T08:20:33.982Z,2.40
2018-02-19T08:23:02.962Z,2.60
2018-02-19T08:25:38.749Z,2.70
2018-02-19T08:28:09.370Z,2.90
2018-02-19T08:30:38.835Z,2.90
2018-02-19T08:33:07.907Z,2.90
2018-02-19T08:35:37.710Z,2.90
2018-02-19T08:38:06.709Z,3.00
2018-02-19T08:40:35.675Z,2.90
2018-02-19T08:43:04.693Z,2.90
2018-02-19T08:45:34.915Z,2.80
2018-02-19T08:48:04.929Z,2.90
2018-02-19T08:50:34.661Z,2.90
2018-02-19T08:53:04.418Z,2.90
2018-02-19T08:55:34.974Z,2.90
2018-02-19T08:58:04.751Z,3.00
2018-02-19T09:00:34.552Z,3.00
2018-02-19T09:03:03.510Z,2.90
2018-02-19T09:05:33.207Z,2.70
2018-02-19T09:08:04.382Z,2.80
2018-02-19T09:10:34.156Z,2.80
2018-02-19T09:13:03.895Z,2.90
2018-02-19T09:15:34.400Z,2.90
2018-02-19T09:18:03.420Z,3.00
2018-02-19T09:20:35.418Z,2.90
2018-02-19T09:23:04.783Z,2.90
2018-02-19T09:25:34.581Z,3.00
2018-02-19T09:28:03.642Z,3.20
2018-02-19T09:30:33.520Z,3.10
2018-02-19T09:33:03.349Z,3.00
2018-02-19T09:35:32.500Z,3.00
2018-02-19T09:38:02.445Z,3.10
2018-02-19T09:40:32.603Z,3.20
2018-02-19T09:43:02.959Z,3.40
2018-02-19T09:45:32.493Z,3.40
2018-02-19T09:48:01.907Z,3.30
2018-02-19T09:50:31.948Z,3.40
2018-02-19T09:53:01.451Z,3.60
2018-02-19T09:55:30.562Z,3.60
2018-02-19T09:58:01.065Z,3.80
2018-02-19T10:00:30.165Z,3.70
2018-02-19T10:02:59.152Z,3.70
2018-02-19T10:05:30.570Z,4.00
2018-02-19T10:08:00.418Z,3.90
2018-02-19T10:10:29.357Z,4.00
2018-02-19T10:12:58.329Z,4.10
2018-02-19T10:15:27.452Z,4.30
2018-02-19T10:17:57.117Z,4.20
2018-02-19T10:20:26.848Z,4.40
2018-02-19T10:22:56.925Z,4.60
2018-02-19T10:25:25.992Z,4.80
2018-02-19T10:27:55.713Z,4.80
2018-02-19T10:30:25.456Z,4.60
2018-02-19T10:32:55.181Z,4.50
2018-02-19T10:35:25.407Z,4.40
2018-02-19T10:37:54.882Z,4.60
2018-02-19T10:40:26.078Z,4.50
2018-02-19T10:42:55.129Z,4.60
2018-02-19T10:45:24.885Z,4.50
2018-02-19T10:47:54.323Z,4.50
2018-02-19T10:50:24.079Z,5.00
2018-02-19T10:52:53.134Z,5.10
2018-02-19T10:55:23.024Z,5.10
2018-02-19T10:57:56.029Z,5.00
2018-02-19T11:00:40.666Z,5.00
2018-02-19T11:03:10.096Z,5.00
2018-02-19T11:05:39.562Z,5.30
2018-02-19T11:08:08.666Z,5.50
2018-02-19T11:10:38.049Z,5.70
2018-02-19T11:13:07.113Z,5.90
2018-02-19T11:15:36.112Z,6.10
2018-02-19T11:18:06.727Z,6.20
2018-02-19T11:23:26.969Z,6.10
2018-02-19T11:25:56.023Z,5.90
2018-02-19T11:28:25.822Z,6.00
2018-02-19T11:30:56.372Z,6.00
2018-02-19T11:33:25.387Z,6.20
2018-02-19T11:35:54.391Z,6.40
2018-02-19T11:38:23.758Z,6.70
2018-02-19T11:40:53.583Z,6.60
2018-02-19T11:43:23.338Z,6.70
2018-02-19T11:45:52.813Z,6.90
2018-02-19T11:48:21.829Z,7.00
2018-02-19T11:50:52.817Z,7.10
2018-02-19T11:53:23.336Z,7.10
2018-02-19T11:55:53.285Z,7.60
2018-02-19T11:58:23.383Z,8.00
2018-02-19T12:00:52.680Z,7.90
2018-02-19T12:03:21.682Z,8.00
2018-02-19T12:05:50.687Z,8.00
2018-02-19T12:08:20.384Z,7.80
2018-02-19T12:10:50.361Z,7.90
2018-02-19T12:13:19.362Z,8.20
2018-02-19T12:15:48.775Z,8.00
2018-02-19T12:18:17.770Z,8.20
2018-02-19T12:20:48.099Z,8.30
2018-02-19T12:23:18.516Z,8.20
2018-02-19T12:25:48.234Z,7.90
2018-02-19T12:28:18.324Z,8.00
2018-02-19T12:30:47.382Z,7.90
2018-02-19T12:33:16.536Z,7.80
2018-02-19T12:35:47.236Z,8.20
2018-02-19T12:38:17.168Z,8.50
2018-02-19T12:40:47.391Z,8.30
2018-02-19T12:43:16.417Z,8.40
2018-02-19T12:45:45.418Z,8.50
2018-02-19T12:48:14.613Z,8.40
2018-02-19T12:50:44.220Z,8.70
2018-02-19T12:53:14.082Z,8.90
2018-02-19T12:55:43.511Z,8.60
2018-02-19T12:58:12.561Z,8.80
2018-02-19T13:00:42.337Z,8.90
2018-02-19T13:03:11.434Z,9.00
2018-02-19T13:05:41.375Z,8.90
2018-02-19T13:08:11.869Z,8.80
2018-02-19T13:10:40.831Z,8.80
2018-02-19T13:13:09.845Z,9.00
2018-02-19T13:15:39.884Z,9.20
2018-02-19T13:18:08.839Z,9.10
2018-02-19T13:20:38.573Z,8.70
2018-02-19T13:23:07.545Z,8.80
2018-02-19T13:25:37.276Z,8.60
2018-02-19T13:28:06.625Z,8.70
2018-02-19T13:30:36.381Z,8.80
2018-02-19T13:33:05.357Z,8.70
2018-02-19T13:35:35.102Z,8.90
2018-02-19T13:38:04.498Z,8.90
2018-02-19T13:40:33.834Z,9.10
2018-02-19T13:43:02.798Z,9.30
2018-02-19T13:45:32.245Z,10.40
2018-02-19T13:48:01.610Z,10.00
2018-02-19T13:50:31.310Z,10.70
2018-02-19T13:53:00.368Z,11.00
2018-02-19T13:55:29.824Z,11.30
2018-02-19T13:57:59.188Z,11.90
2018-02-19T14:00:28.168Z,13.60
2018-02-19T14:02:57.273Z,13.70
2018-02-19T14:05:26.240Z,13.30
2018-02-19T14:07:55.620Z,13.20
2018-02-19T14:10:25.012Z,12.80
2018-02-19T14:12:53.964Z,12.30
2018-02-19T14:15:23.349Z,12.10
2018-02-19T14:17:53.061Z,12.00
2018-02-19T14:20:22.896Z,11.80
2018-02-19T14:22:52.301Z,11.90
2018-02-19T14:25:21.780Z,11.70
2018-02-19T14:27:50.746Z,11.40
2018-02-19T14:30:19.722Z,11.00
2018-02-19T14:32:48.722Z,11.20
2018-02-19T14:35:18.098Z,10.70
2018-02-19T14:37:47.087Z,10.40
2018-02-19T14:40:16.866Z,10.20
2018-02-19T14:42:45.816Z,10.30
2018-02-19T14:45:16.289Z,9.80
2018-02-19T14:47:45.657Z,9.70
2018-02-19T14:50:15.433Z,9.70
2018-02-19T14:52:44.411Z,9.40
2018-02-19T14:55:13.780Z,9.20
2018-02-19T14:57:43.551Z,9.10
2018-02-19T15:00:12.585Z,9.10
2018-02-19T15:02:41.603Z,9.10
2018-02-19T15:05:11.697Z,8.70
2018-02-19T15:07:41.443Z,8.70
2018-02-19T15:10:10.437Z,8.80
2018-02-19T15:12:40.525Z,8.80
2018-02-19T15:15:09.909Z,8.90
2018-02-19T15:17:39.626Z,8.80
2018-02-19T15:20:09.371Z,8.80
2018-02-19T15:22:39.477Z,8.80
2018-02-19T15:25:08.842Z,8.80
2018-02-19T15:27:38.571Z,8.60
2018-02-19T15:30:08.444Z,8.40
2018-02-19T15:32:37.414Z,8.30
2018-02-19T15:35:06.386Z,8.10
2018-02-19T15:37:35.321Z,8.00
2018-02-19T15:40:04.758Z,7.70
2018-02-19T15:42:33.751Z,7.60
2018-02-19T15:45:03.104Z,7.50
2018-02-19T15:47:32.887Z,7.20
2018-02-19T15:50:02.633Z,7.00
2018-02-19T15:52:31.600Z,6.80
2018-02-19T15:55:00.574Z,6.50
2018-02-19T15:57:30.390Z,6.30
2018-02-19T15:59:59.340Z,6.10
2018-02-19T16:02:28.367Z,6.00
2018-02-19T16:04:58.080Z,5.80
2018-02-19T16:07:27.159Z,5.70
2018-02-19T16:09:56.106Z,5.50
2018-02-19T16:12:25.093Z,5.30
2018-02-19T16:14:54.796Z,5.10
2018-02-19T16:17:24.728Z,5.00
2018-02-19T16:19:54.532Z,4.90
2018-02-19T16:22:23.894Z,4.70
2018-02-19T16:24:53.740Z,4.60
2018-02-19T16:27:23.600Z,4.50
2018-02-19T16:29:53.093Z,4.40
2018-02-19T16:32:23.341Z,4.30
2018-02-19T16:34:52.779Z,4.20
2018-02-19T16:37:22.626Z,4.10
2018-02-19T16:40:19.011Z,3.90
2018-02-19T16:42:48.136Z,3.70
2018-02-19T16:45:18.241Z,3.70
2018-02-19T16:47:47.333Z,3.60
2018-02-19T16:50:17.296Z,3.50
2018-02-19T16:52:47.159Z,3.50
2018-02-19T16:55:16.237Z,3.40
2018-02-19T16:57:47.215Z,3.30
2018-02-19T17:00:16.301Z,3.20
2018-02-19T17:02:45.300Z,3.00
2018-02-19T17:05:15.865Z,2.90
2018-02-19T17:07:46.647Z,2.90
2018-02-19T17:10:15.984Z,2.80
2018-02-19T17:12:44.933Z,2.70
2018-02-19T17:15:14.700Z,2.60
2018-02-19T17:17:43.676Z,2.50
2018-02-19T17:20:12.697Z,2.50
2018-02-19T17:22:42.433Z,2.30
2018-02-19T17:25:11.403Z,2.30
2018-02-19T17:27:40.893Z,2.20
2018-02-19T17:30:09.837Z,2.10
2018-02-19T17:32:39.569Z,2.10
2018-02-19T17:35:09.210Z,2.10
2018-02-19T17:37:38.544Z,2.10
2018-02-19T17:40:07.533Z,2.10
2018-02-19T17:42:36.547Z,2.10
2018-02-19T17:45:05.974Z,2.00
2018-02-19T17:47:36.459Z,2.00
2018-02-19T17:50:05.447Z,1.90
2018-02-19T17:52:34.877Z,1.80
2018-02-19T17:55:04.618Z,1.80
2018-02-19T17:57:33.993Z,1.80
2018-02-19T18:00:03.693Z,1.80
2018-02-19T18:02:32.669Z,1.80
2018-02-19T18:05:01.698Z,1.70
2018-02-19T18:07:30.726Z,1.70
2018-02-19T18:09:59.705Z,1.70
2018-02-19T18:12:29.502Z,1.70
2018-02-19T18:14:58.462Z,1.60
2018-02-19T18:17:27.423Z,1.60
2018-02-19T18:19:56.412Z,1.60
2018-02-19T18:22:26.148Z,1.50
2018-02-19T18:24:55.999Z,1.50
2018-02-19T18:27:24.987Z,1.50
2018-02-19T18:29:54.685Z,1.50
2018-02-19T18:32:23.648Z,1.50
2018-02-19T18:34:52.684Z,1.50
2018-02-19T18:37:21.647Z,1.40
2018-02-19T18:39:51.367Z,1.40
2018-02-19T18:42:21.159Z,1.40
2018-02-19T18:44:50.123Z,1.40
2018-02-19T18:47:19.132Z,1.40
2018-02-19T18:49:48.859Z,1.30
2018-02-19T18:52:18.640Z,1.30
2018-02-19T18:54:47.634Z,1.40
2018-02-19T18:57:16.609Z,1.30
2018-02-19T18:59:46.421Z,1.40
2018-02-19T19:02:16.820Z,1.20
2018-02-19T19:04:46.706Z,1.10
2018-02-19T19:07:28.192Z,0.80
2018-02-19T19:23:32.134Z,1.20
2018-02-19T19:26:02.054Z,1.20
2018-02-19T19:28:32.943Z,1.30
2018-02-19T19:31:02.728Z,1.30
2018-02-19T19:33:32.154Z,1.30
2018-02-19T19:36:01.619Z,1.20
2018-02-19T19:38:30.569Z,1.20
2018-02-19T19:40:59.609Z,1.30
2018-02-19T19:43:28.660Z,1.30
2018-02-19T19:45:57.677Z,1.40
2018-02-19T19:48:27.485Z,1.40
2018-02-19T19:50:56.527Z,1.40
2018-02-19T19:53:26.188Z,1.40
2018-02-19T19:55:56.162Z,1.50
2018-02-19T19:58:25.174Z,1.50
2018-02-19T20:00:54.214Z,1.50
2018-02-19T20:03:23.268Z,1.40
2018-02-19T20:05:52.280Z,1.30
2018-02-19T20:08:22.361Z,1.40
2018-02-19T20:10:51.632Z,1.50
2018-02-19T20:13:20.639Z,1.50
2018-02-19T20:15:50.557Z,1.50
2018-02-19T20:18:19.574Z,1.50
2018-02-19T20:20:48.696Z,1.60
2018-02-19T20:23:18.467Z,1.60
2018-02-19T20:25:47.472Z,1.60
2018-02-19T20:28:16.955Z,1.60
2018-02-19T20:30:46.914Z,1.70
2018-02-19T20:33:16.359Z,1.60
2018-02-19T20:35:46.433Z,1.60
2018-02-19T20:38:16.255Z,1.40
2018-02-19T20:40:46.043Z,1.50
2018-02-19T20:43:15.375Z,1.40
2018-02-19T20:45:45.152Z,1.30
2018-02-19T20:48:16.336Z,1.30
2018-02-19T20:50:45.362Z,1.20
2018-02-19T20:53:14.412Z,1.20
2018-02-19T20:55:44.631Z,1.30
2018-02-19T20:58:15.367Z,1.30
2018-02-19T21:00:45.154Z,1.30
2018-02-19T21:03:14.148Z,1.30
2018-02-19T21:05:44.992Z,1.30
2018-02-19T21:08:14.982Z,1.30
2018-02-19T21:10:44.033Z,1.30
2018-02-19T21:13:13.803Z,1.20
2018-02-19T21:15:43.752Z,1.30
2018-02-19T21:18:12.788Z,1.30
2018-02-19T21:20:43.385Z,1.40
2018-02-19T21:23:12.469Z,1.30
2018-02-19T21:25:41.536Z,1.60
2018-02-19T21:28:11.273Z,1.50
2018-02-19T21:30:40.867Z,1.50
2018-02-19T21:33:10.651Z,1.50
2018-02-19T21:35:41.339Z,1.50
2018-02-19T21:38:11.827Z,1.50
2018-02-19T21:40:40.905Z,1.50
2018-02-19T21:43:09.895Z,1.50
2018-02-19T21:45:39.802Z,1.60
2018-02-19T21:48:09.607Z,1.60
2018-02-19T21:50:39.383Z,1.60
2018-02-19T21:53:08.351Z,1.60
2018-02-19T21:55:37.834Z,1.50
2018-02-19T21:58:06.919Z,1.50
2018-02-19T22:00:36.698Z,1.50
2018-02-19T22:03:06.807Z,1.60
2018-02-19T22:05:35.804Z,1.50
2018-02-19T22:08:05.573Z,1.50
2018-02-19T22:10:35.289Z,1.60
2018-02-19T22:13:05.044Z,1.50
2018-02-19T22:15:34.761Z,1.50
2018-02-19T22:18:04.110Z,1.60
2018-02-19T22:20:34.118Z,1.70
2018-02-19T22:23:03.476Z,1.70
2018-02-19T22:25:32.528Z,1.60
2018-02-19T22:28:02.268Z,1.60
2018-02-19T22:30:32.719Z,1.60
2018-02-19T22:33:01.673Z,1.70
2018-02-19T22:35:30.642Z,1.70
2018-02-19T22:38:00.386Z,1.70
2018-02-19T22:40:29.354Z,1.60
2018-02-19T22:42:58.889Z,1.60
2018-02-19T22:45:28.642Z,1.50
2018-02-19T22:47:57.650Z,1.50
2018-02-19T22:50:26.634Z,1.40
2018-02-19T22:52:57.266Z,1.40
2018-02-19T22:55:27.330Z,1.30
2018-02-19T22:57:56.336Z,1.30
2018-02-19T23:00:25.707Z,1.20
2018-02-19T23:02:55.075Z,1.20
2018-02-19T23:05:25.609Z,1.10
2018-02-19T23:07:56.462Z,1.10
2018-02-19T23:10:25.773Z,1.10
2018-02-19T23:12:54.723Z,1.00
2018-02-19T23:15:23.670Z,0.90
2018-02-19T23:17:52.658Z,0.90
2018-02-19T23:20:21.996Z,0.90
2018-02-19T23:22:51.106Z,0.80
2018-02-19T23:25:20.825Z,0.80
2018-02-19T23:27:50.625Z,0.80
2018-02-19T23:30:19.629Z,0.80
2018-02-19T23:32:49.335Z,0.80
2018-02-19T23:35:18.709Z,0.80
2018-02-19T23:37:49.172Z,0.70
2018-02-19T23:40:18.952Z,0.70
2018-02-19T23:42:47.905Z,0.60
2018-02-19T23:45:19.434Z,0.60
2018-02-19T23:47:48.825Z,0.60
2018-02-19T23:50:18.559Z,0.60
2018-02-19T23:52:47.833Z,0.40
2018-02-19T23:55:17.184Z,0.40
2018-02-19T23:57:46.549Z,0.40
